Molokai, HI

6:00 PM HST on July 11, 2014 (GMT -1000)
Molokai (PHMK) Elev 449 ft | 21.15 °N, 157.10 °W | Change Station

Current weather conditions updated 6 minutes ago

Partly Cloudy
Partly Cloudy
77 °F
Feels Like 77 °F
N
16
Wind Variable Wind from NNE
Gusts 25 mph

Tomorrow is forecast to be Cooler than today.

Today
High -- | Low -- °F
--% Chance of Precip.
Yesterday
High -- | Low -- °F
Precip. -- in
5:53 AM 7:13 PM
Full, 100% visible
Pressure 29.97 in
Visibility 10.0 miles
Clouds Few 5000 ft
Dew Point 71 °F
Humidity 82%
Rainfall 0.00 in
Snow Depth Not available.
UV 1 out of 12
Pollen Not available.
Air Quality Not available.
Flu Activity Sporadic
METAR PHMK 120354Z 03014G22KT 10SM FEW050 25/22 A2996 RMK AO2 SLP147 T02500217 $

More Conditions Fewer Conditions

Pressure 29.97 in
Visibility 10.0 miles
Clouds Few 5000 ft
Dew Point 71 °F
Humidity 82%
Rainfall 0.00 in
Snow Depth Not available.
UV 1 out of 12
Pollen Not available.
Air Quality Not available.
Flu Activity Sporadic
METAR PHMK 120354Z 03014G22KT 10SM FEW050 25/22 A2996 RMK AO2 SLP147 T02500217 $

More Conditions Fewer Conditions

10-Day Weather Forecast

Almanac

Astronomy

Jul. 11, 2014 Rise Set
Actual Time 5:53 AM HST 7:13 PM HST
Civil Twilight 5:29 AM HST 7:38 PM HST
Nautical Twilight 5:00 AM HST 8:07 PM HST
Astronomical Twilight 4:30 AM HST 8:37 PM HST
Moon 6:43 PM HST (7/11) 5:10 AM HST (7/11)
Length of Visible Light 14h 08m
Length of Day
13h 19m
Tomorrow will be 0m 32s shorter.
Full, 100% of the Moon is Illuminated
Jul 12
Full
Jul 12
Full
Jul 18
Last Quarter
Jul 26
New
Aug 3
First Quarter

Today's Extremes

State Highs State Lows

Community

WunderPhotos

Upload Photos

1,732,699 photos uploaded!

Nearby

Snow Depth

Station Depth Elevation
No new snow has been reported.

Earthquake Activity

City Distance Mag. Time & Date
No recent earthquake activity has been reported nearby.
Minimum magnitude displayed is 2.5.

Coastal Water Temperatures

Place Temperature
No Stations Reporting

Nearby Weather Stations

There are no personal weather stations in this area.